createdAt,value
2019-01-03T00:01:58.722Z,6.13
2019-01-03T00:04:53.398Z,6.93
2019-01-03T00:07:44.622Z,3.73
2019-01-03T00:10:32.906Z,4.43
2019-01-03T00:13:33.570Z,3.57
2019-01-03T00:16:21.941Z,5.37
2019-01-03T00:19:05.758Z,2.53
2019-01-03T00:21:52.617Z,2.63
2019-01-03T00:24:39.838Z,2.80
2019-01-03T00:27:22.486Z,2.87
2019-01-03T00:30:22.930Z,3.03
2019-01-03T00:33:20.190Z,2.67
2019-01-03T00:36:07.494Z,3.37
2019-01-03T00:39:04.837Z,1.50
2019-01-03T00:42:01.878Z,2.37
2019-01-03T00:45:00.296Z,4.03
2019-01-03T00:47:52.977Z,1.67
2019-01-03T00:50:59.457Z,3.93
2019-01-03T00:53:59.401Z,1.90
2019-01-03T00:56:47.673Z,1.67
2019-01-03T00:59:36.005Z,2.10
2019-01-03T01:02:17.097Z,2.83
2019-01-03T01:05:04.349Z,1.83
2019-01-03T01:07:55.380Z,2.13
2019-01-03T01:10:42.221Z,2.90
2019-01-03T01:13:42.801Z,1.40
2019-01-03T01:16:42.588Z,3.10
2019-01-03T01:19:46.213Z,1.67
2019-01-03T01:22:52.777Z,5.83
2019-01-03T01:25:35.945Z,1.57
2019-01-03T01:28:22.857Z,1.60
2019-01-03T01:31:09.833Z,1.77
2019-01-03T01:34:05.834Z,1.83
2019-01-03T01:37:00.836Z,1.67
2019-01-03T01:40:04.296Z,2.27
2019-01-03T01:43:04.754Z,1.60
2019-01-03T01:45:55.728Z,2.07
2019-01-03T01:48:42.405Z,3.20
2019-01-03T01:51:29.572Z,3.63
2019-01-03T01:54:14.420Z,2.60
2019-01-03T01:57:17.559Z,1.60
2019-01-03T02:00:04.484Z,1.90
2019-01-03T02:02:55.720Z,2.87
2019-01-03T02:05:46.760Z,2.17
2019-01-03T02:08:33.789Z,5.17
2019-01-03T02:11:20.985Z,3.07
2019-01-03T02:14:07.921Z,2.80
2019-01-03T02:16:59.036Z,2.90
2019-01-03T02:19:42.939Z,4.00
2019-01-03T02:22:37.512Z,1.70
2019-01-03T02:25:28.947Z,3.57
2019-01-03T02:28:20.147Z,1.63
2019-01-03T02:31:07.261Z,4.00
2019-01-03T02:33:54.428Z,2.50
2019-01-03T02:37:00.824Z,2.30
2019-01-03T02:40:01.269Z,2.47
2019-01-03T02:42:59.169Z,2.57
2019-01-03T02:45:58.243Z,1.70
2019-01-03T02:49:00.788Z,3.27
2019-01-03T02:51:55.675Z,2.90
2019-01-03T02:54:42.643Z,2.53
2019-01-03T02:57:25.591Z,1.57
2019-01-03T03:00:10.491Z,1.80
2019-01-03T03:02:57.219Z,3.83
2019-01-03T03:05:49.631Z,2.53
2019-01-03T03:08:29.743Z,2.03
2019-01-03T03:11:16.979Z,4.10
2019-01-03T03:14:15.051Z,2.00
2019-01-03T03:17:08.680Z,5.07
2019-01-03T03:19:59.815Z,4.40
2019-01-03T03:22:47.051Z,1.83
2019-01-03T03:25:46.166Z,1.97
2019-01-03T03:28:33.234Z,2.63
2019-01-03T03:31:31.008Z,2.87
2019-01-03T03:34:19.518Z,2.30
2019-01-03T03:37:10.970Z,2.57
2019-01-03T03:40:06.058Z,4.57
2019-01-03T03:42:49.942Z,1.47
2019-01-03T03:45:38.414Z,1.57
2019-01-03T03:48:26.802Z,3.77
2019-01-03T03:51:05.554Z,1.37
2019-01-03T03:54:06.034Z,1.60
2019-01-03T03:56:50.432Z,6.63
2019-01-03T03:59:37.490Z,1.67
2019-01-03T04:02:27.702Z,1.40
2019-01-03T04:05:14.562Z,2.50
2019-01-03T04:08:17.906Z,1.40
2019-01-03T04:11:15.255Z,3.03
2019-01-03T04:14:04.806Z,4.40
2019-01-03T04:17:02.998Z,2.50
2019-01-03T04:19:49.949Z,1.57
2019-01-03T04:22:54.987Z,1.50
2019-01-03T04:25:42.045Z,1.97
2019-01-03T04:28:30.982Z,3.70
2019-01-03T04:31:28.177Z,2.77
2019-01-03T04:34:34.669Z,1.70
2019-01-03T04:37:21.590Z,1.80
2019-01-03T04:40:15.849Z,5.93
2019-01-03T04:43:05.098Z,5.90
2019-01-03T04:46:11.322Z,6.33
2019-01-03T04:48:52.426Z,5.73
2019-01-03T04:51:36.629Z,4.00
2019-01-03T04:54:33.797Z,2.40
2019-01-03T04:57:21.019Z,2.67
2019-01-03T05:00:08.273Z,2.60
2019-01-03T05:03:00.205Z,2.93
2019-01-03T05:05:47.445Z,3.73
2019-01-03T05:08:35.773Z,2.03
2019-01-03T05:11:23.066Z,3.87
2019-01-03T05:14:08.254Z,2.57
2019-01-03T05:16:56.617Z,4.20
2019-01-03T05:19:50.972Z,2.80
2019-01-03T05:22:39.324Z,9.27
2019-01-03T05:25:27.673Z,4.53
2019-01-03T05:28:18.786Z,5.93
2019-01-03T05:30:59.452Z,3.07
2019-01-03T05:33:46.482Z,2.40
2019-01-03T05:36:40.670Z,3.17
2019-01-03T05:39:37.616Z,4.43
2019-01-03T05:42:26.365Z,3.83
2019-01-03T05:45:23.300Z,3.67
2019-01-03T05:48:10.184Z,2.90
2019-01-03T05:50:57.832Z,5.93
2019-01-03T05:53:44.632Z,5.10
2019-01-03T05:56:30.541Z,5.40
2019-01-03T05:59:33.334Z,6.67
2019-01-03T06:02:27.491Z,3.07
2019-01-03T06:05:14.788Z,5.87
2019-01-03T06:08:00.018Z,3.27
2019-01-03T06:10:47.216Z,15.33
2019-01-03T06:13:34.368Z,11.97
2019-01-03T06:16:21.827Z,8.33
2019-01-03T06:19:08.943Z,7.57
2019-01-03T06:21:53.896Z,4.40
2019-01-03T06:24:41.268Z,5.30
2019-01-03T06:27:35.759Z,5.53
2019-01-03T06:30:21.647Z,5.03
2019-01-03T06:33:15.849Z,4.90
2019-01-03T06:36:13.480Z,4.07
2019-01-03T06:39:01.819Z,10.47
2019-01-03T06:42:02.431Z,11.83
2019-01-03T06:45:02.831Z,5.10
2019-01-03T06:47:50.035Z,5.53
2019-01-03T06:50:56.551Z,8.33
2019-01-03T06:53:44.855Z,16.43
2019-01-03T06:56:43.727Z,10.20
2019-01-03T06:59:27.419Z,8.73
2019-01-03T07:02:24.651Z,6.87
2019-01-03T07:05:18.679Z,6.67
2019-01-03T07:08:05.519Z,6.77
2019-01-03T07:11:11.591Z,8.03
2019-01-03T07:14:02.882Z,6.67
2019-01-03T07:17:00.967Z,7.80
2019-01-03T07:19:48.134Z,6.23
2019-01-03T07:22:35.208Z,9.37
2019-01-03T07:25:23.675Z,8.13
2019-01-03T07:28:24.326Z,7.17
2019-01-03T07:31:15.914Z,3.73
2019-01-03T07:34:10.231Z,6.20
2019-01-03T07:36:58.570Z,10.10
2019-01-03T07:39:58.573Z,8.20
2019-01-03T07:42:45.456Z,6.27
2019-01-03T07:45:32.750Z,5.23
2019-01-03T07:48:19.966Z,5.43
2019-01-03T07:51:06.826Z,3.40
2019-01-03T07:54:00.338Z,8.03
2019-01-03T07:56:47.182Z,7.27
2019-01-03T07:59:50.805Z,10.63
2019-01-03T08:02:37.662Z,4.40
2019-01-03T08:05:24.766Z,10.73
2019-01-03T08:08:06.834Z,5.93
2019-01-03T08:10:53.611Z,9.20
2019-01-03T08:13:50.794Z,6.10
2019-01-03T08:16:41.910Z,6.77
2019-01-03T08:19:30.249Z,6.10
2019-01-03T08:22:32.754Z,10.80
2019-01-03T08:25:23.625Z,7.93
2019-01-03T08:28:26.841Z,4.40
2019-01-03T08:31:13.941Z,6.37
2019-01-03T08:34:01.155Z,3.80
2019-01-03T08:36:48.129Z,3.90
2019-01-03T08:39:48.729Z,5.77
2019-01-03T08:42:36.184Z,5.87
2019-01-03T08:45:30.514Z,3.77
2019-01-03T08:48:17.665Z,6.17
2019-01-03T08:51:04.501Z,8.97
2019-01-03T08:53:51.222Z,5.37
2019-01-03T08:56:38.461Z,3.40
2019-01-03T08:59:26.793Z,5.73
2019-01-03T09:02:08.388Z,5.10
2019-01-03T09:04:57.905Z,7.17
2019-01-03T09:07:44.952Z,3.80
2019-01-03T09:10:36.148Z,4.13
2019-01-03T09:13:23.219Z,4.93
2019-01-03T09:16:04.068Z,4.20
2019-01-03T09:18:55.468Z,2.77
2019-01-03T09:21:42.341Z,4.53
2019-01-03T09:24:43.389Z,10.00
2019-01-03T09:27:30.560Z,3.97
2019-01-03T09:30:17.744Z,4.20
2019-01-03T09:33:15.152Z,6.43
2019-01-03T09:36:15.496Z,6.47
2019-01-03T09:39:12.028Z,7.57
2019-01-03T09:41:59.178Z,4.60
2019-01-03T09:44:46.632Z,7.10
2019-01-03T09:47:15.997Z,6.13
2019-01-03T09:49:45.244Z,10.73
2019-01-03T09:52:14.562Z,8.50
2019-01-03T09:54:44.370Z,9.97
2019-01-03T09:57:13.636Z,7.13
2019-01-03T09:59:42.932Z,5.33
2019-01-03T10:02:13.316Z,6.50
2019-01-03T10:04:42.604Z,9.83
2019-01-03T10:07:11.856Z,4.37
2019-01-03T10:09:41.208Z,4.30
2019-01-03T10:12:10.596Z,6.97
2019-01-03T10:14:39.956Z,13.37
2019-01-03T10:17:09.332Z,7.13
2019-01-03T10:19:38.664Z,13.53
2019-01-03T10:22:07.953Z,7.37
2019-01-03T10:24:37.231Z,5.87
2019-01-03T10:27:06.915Z,2.17
2019-01-03T10:29:36.271Z,5.47
2019-01-03T10:32:05.660Z,2.67
2019-01-03T10:34:34.987Z,3.93
2019-01-03T10:37:04.272Z,7.53
2019-01-03T10:39:33.623Z,6.77
2019-01-03T10:42:02.932Z,5.00
2019-01-03T10:44:32.339Z,4.27
2019-01-03T10:47:01.739Z,4.60
2019-01-03T10:49:30.991Z,7.27
2019-01-03T10:52:00.284Z,4.90
2019-01-03T10:54:29.627Z,5.23
2019-01-03T10:56:58.943Z,3.30
2019-01-03T10:59:28.270Z,6.03
2019-01-03T11:01:57.568Z,3.80
2019-01-03T11:04:26.872Z,3.93
2019-01-03T11:06:56.155Z,6.20
2019-01-03T11:09:25.389Z,9.90
2019-01-03T11:11:54.675Z,4.23
2019-01-03T11:14:23.932Z,3.63
2019-01-03T11:16:53.219Z,5.37
2019-01-03T11:19:22.530Z,4.50
2019-01-03T11:21:51.811Z,4.93
2019-01-03T11:24:22.358Z,7.37
2019-01-03T11:26:54.235Z,10.93
2019-01-03T11:29:23.467Z,4.23
2019-01-03T11:31:52.739Z,5.83
2019-01-03T11:34:22.096Z,6.10
2019-01-03T11:36:51.336Z,5.50
2019-01-03T11:39:20.622Z,5.17
2019-01-03T11:41:50.050Z,4.13
2019-01-03T11:44:19.336Z,8.33
2019-01-03T11:46:48.715Z,5.13
2019-01-03T11:49:18.107Z,4.53
2019-01-03T11:51:47.315Z,6.43
2019-01-03T11:54:16.610Z,9.50
2019-01-03T11:56:45.887Z,14.67
2019-01-03T11:59:15.287Z,10.60
2019-01-03T12:01:44.534Z,13.30
2019-01-03T12:04:13.792Z,7.20
2019-01-03T12:06:43.071Z,7.00
2019-01-03T12:09:12.399Z,5.30
2019-01-03T12:11:41.659Z,7.20
2019-01-03T12:14:10.994Z,7.93
2019-01-03T12:16:40.275Z,9.97
2019-01-03T12:19:09.647Z,6.33
2019-01-03T12:21:38.978Z,8.03
2019-01-03T12:24:08.318Z,5.57
2019-01-03T12:26:37.678Z,8.07
2019-01-03T12:29:07.062Z,13.80
2019-01-03T12:31:36.362Z,6.97
2019-01-03T12:34:05.534Z,16.60
2019-01-03T12:36:34.835Z,9.50
2019-01-03T12:39:05.776Z,12.07
2019-01-03T12:41:35.086Z,9.27
2019-01-03T12:44:05.998Z,10.10
2019-01-03T12:46:35.266Z,8.70
2019-01-03T12:49:04.943Z,16.63
2019-01-03T12:51:34.190Z,8.37
2019-01-03T12:54:03.470Z,11.60
2019-01-03T12:56:32.718Z,9.23
2019-01-03T12:59:02.313Z,7.07
2019-01-03T13:01:31.686Z,9.53
2019-01-03T13:04:01.123Z,6.87
2019-01-03T13:06:30.429Z,8.13
2019-01-03T13:08:59.716Z,6.40
2019-01-03T13:11:29.057Z,7.10
2019-01-03T13:13:58.425Z,3.53
2019-01-03T13:16:27.758Z,8.07
2019-01-03T13:18:57.058Z,6.87
2019-01-03T13:21:26.429Z,5.13
2019-01-03T13:23:55.785Z,9.20
2019-01-03T13:26:26.375Z,3.13
2019-01-03T13:28:55.740Z,5.97
2019-01-03T13:31:25.085Z,14.07
2019-01-03T13:33:54.444Z,9.93
2019-01-03T13:36:23.744Z,8.27
2019-01-03T13:38:53.144Z,5.20
2019-01-03T13:41:22.456Z,4.50
2019-01-03T13:43:51.743Z,4.40
2019-01-03T13:46:21.064Z,7.80
2019-01-03T13:48:50.317Z,7.93
2019-01-03T13:51:19.607Z,6.53
2019-01-03T13:53:48.964Z,5.83
2019-01-03T13:56:18.248Z,12.03
2019-01-03T13:58:47.519Z,7.73
2019-01-03T14:01:16.804Z,6.63
2019-01-03T14:03:46.148Z,6.50
2019-01-03T14:06:15.419Z,9.00
2019-01-03T14:08:44.763Z,6.77
2019-01-03T14:11:14.154Z,4.97
2019-01-03T14:13:43.424Z,5.23
2019-01-03T14:16:12.692Z,4.10
2019-01-03T14:18:41.967Z,4.87
2019-01-03T14:21:11.275Z,3.73
2019-01-03T14:23:40.531Z,5.73
2019-01-03T14:26:09.867Z,4.20
2019-01-03T14:28:39.128Z,5.70
2019-01-03T14:31:08.423Z,5.30
2019-01-03T14:33:37.663Z,8.07
2019-01-03T14:36:07.031Z,3.37
2019-01-03T14:38:36.363Z,5.50
2019-01-03T14:41:05.697Z,4.97
2019-01-03T14:43:35.007Z,9.87
2019-01-03T14:46:04.367Z,13.27
2019-01-03T14:48:33.670Z,9.73
2019-01-03T14:51:02.919Z,8.60
2019-01-03T14:53:32.284Z,6.90
2019-01-03T14:56:01.545Z,9.63
2019-01-03T14:58:30.862Z,8.70
2019-01-03T15:01:00.091Z,11.37
2019-01-03T15:03:29.363Z,11.67
2019-01-03T15:05:58.595Z,12.83
2019-01-03T15:08:27.893Z,12.07
2019-01-03T15:10:57.223Z,12.03
2019-01-03T15:13:26.459Z,9.50
2019-01-03T15:15:55.775Z,9.87
2019-01-03T15:18:25.066Z,11.73
2019-01-03T15:20:54.407Z,15.40
2019-01-03T15:23:23.727Z,23.73
2019-01-03T15:25:53.024Z,8.67
2019-01-03T15:28:23.040Z,15.80
2019-01-03T15:30:52.518Z,9.70
2019-01-03T15:33:21.758Z,8.13
2019-01-03T15:35:51.115Z,14.17
2019-01-03T15:38:20.431Z,12.30
2019-01-03T15:40:49.694Z,8.37
2019-01-03T15:43:19.025Z,8.73
2019-01-03T15:45:48.403Z,9.00
2019-01-03T15:48:17.918Z,12.00
2019-01-03T15:50:47.166Z,12.37
2019-01-03T15:53:16.443Z,13.27
2019-01-03T15:55:45.727Z,13.30
2019-01-03T15:58:15.010Z,9.00
2019-01-03T16:00:44.263Z,7.80
2019-01-03T16:03:13.551Z,7.30
2019-01-03T16:05:42.783Z,10.23
2019-01-03T16:08:12.070Z,10.57
2019-01-03T16:10:41.303Z,14.80
2019-01-03T16:13:10.543Z,23.67
2019-01-03T16:15:39.918Z,24.77
2019-01-03T16:18:09.174Z,15.23
2019-01-03T16:20:41.516Z,17.57
2019-01-03T16:23:10.769Z,17.23
2019-01-03T16:25:40.006Z,11.87
2019-01-03T16:28:10.673Z,13.67
2019-01-03T16:30:39.928Z,13.40
2019-01-03T16:33:09.214Z,18.33
2019-01-03T16:35:38.601Z,19.10
2019-01-03T16:38:07.954Z,12.43
2019-01-03T16:40:37.193Z,20.07
2019-01-03T16:43:06.453Z,20.70
2019-01-03T16:45:35.741Z,22.67
2019-01-03T16:48:05.062Z,23.17
2019-01-03T16:50:34.294Z,29.03
2019-01-03T16:53:03.525Z,12.10
2019-01-03T16:55:32.742Z,18.20
2019-01-03T16:58:02.070Z,18.40
2019-01-03T17:00:31.282Z,29.27
2019-01-03T17:03:04.105Z,20.13
2019-01-03T17:05:33.409Z,21.40
2019-01-03T17:08:02.769Z,17.60
2019-01-03T17:10:32.060Z,15.87
2019-01-03T17:13:01.380Z,13.70
2019-01-03T17:15:30.709Z,9.13
2019-01-03T17:17:59.949Z,9.27
2019-01-03T17:20:29.288Z,14.00
2019-01-03T17:22:58.584Z,11.00
2019-01-03T17:25:27.946Z,11.47
2019-01-03T17:27:57.598Z,16.23
2019-01-03T17:30:26.889Z,14.00
2019-01-03T17:32:56.137Z,13.60
2019-01-03T17:35:25.368Z,11.97
2019-01-03T17:37:54.794Z,13.70
2019-01-03T17:40:24.081Z,13.93
2019-01-03T17:42:53.365Z,17.40
2019-01-03T17:45:22.761Z,14.73
2019-01-03T17:47:52.112Z,26.53
2019-01-03T17:50:21.308Z,19.17
2019-01-03T17:52:50.628Z,14.70
2019-01-03T17:55:20.057Z,12.27
2019-01-03T17:57:49.320Z,12.47
2019-01-03T18:00:21.296Z,34.50
2019-01-03T18:02:51.257Z,18.90
2019-01-03T18:05:20.624Z,22.27
2019-01-03T18:07:49.880Z,23.13
2019-01-03T18:10:19.268Z,24.40
2019-01-03T18:12:48.596Z,13.30
2019-01-03T18:15:17.836Z,17.80
2019-01-03T18:17:47.148Z,15.10
2019-01-03T18:20:17.756Z,22.67
2019-01-03T18:22:47.105Z,22.60
2019-01-03T18:25:16.447Z,19.37
2019-01-03T18:27:45.761Z,41.00
2019-01-03T18:30:15.141Z,16.40
2019-01-03T18:32:44.443Z,14.63
2019-01-03T18:35:13.727Z,12.80
2019-01-03T18:37:42.999Z,14.80
2019-01-03T18:40:14.727Z,20.13
2019-01-03T18:42:44.099Z,12.47
2019-01-03T18:45:16.299Z,18.73
2019-01-03T18:47:45.543Z,12.43
2019-01-03T18:50:18.850Z,9.97
2019-01-03T18:52:45.771Z,11.53
2019-01-03T18:55:15.991Z,11.70
2019-01-03T18:57:45.249Z,13.23
2019-01-03T19:00:14.547Z,14.27
2019-01-03T19:02:44.718Z,11.53
2019-01-03T19:05:14.279Z,17.57
2019-01-03T19:07:43.603Z,9.97
2019-01-03T19:10:12.923Z,14.30
2019-01-03T19:12:42.256Z,11.20
2019-01-03T19:15:11.627Z,15.67
2019-01-03T19:17:40.959Z,9.40
2019-01-03T19:20:11.227Z,9.67
2019-01-03T19:22:40.910Z,9.87
2019-01-03T19:25:15.484Z,14.37
2019-01-03T19:27:44.727Z,11.07
2019-01-03T19:30:13.958Z,10.30
2019-01-03T19:32:43.187Z,12.60
2019-01-03T19:35:12.602Z,12.00
2019-01-03T19:37:42.273Z,8.97
2019-01-03T19:40:13.494Z,12.03
2019-01-03T19:42:43.702Z,9.10
2019-01-03T19:45:13.035Z,7.17
2019-01-03T19:47:42.402Z,7.70
2019-01-03T19:50:13.782Z,6.90
2019-01-03T19:52:43.038Z,9.77
2019-01-03T19:55:12.291Z,8.37
2019-01-03T19:57:41.602Z,13.70
2019-01-03T20:00:13.297Z,7.60
2019-01-03T20:02:42.622Z,9.57
2019-01-03T20:05:11.810Z,8.90
2019-01-03T20:07:41.449Z,11.23
2019-01-03T20:10:12.215Z,10.13
2019-01-03T20:12:41.453Z,6.60
2019-01-03T20:15:11.982Z,10.37
2019-01-03T20:17:41.309Z,18.13
2019-01-03T20:20:10.744Z,11.20
2019-01-03T20:22:40.028Z,9.00
2019-01-03T20:25:10.002Z,11.47
2019-01-03T20:27:39.333Z,12.27
2019-01-03T20:30:09.434Z,7.47
2019-01-03T20:32:38.780Z,10.43
2019-01-03T20:35:08.230Z,7.60
2019-01-03T20:37:37.497Z,7.43
2019-01-03T20:40:07.281Z,7.83
2019-01-03T20:42:36.538Z,8.77
2019-01-03T20:45:06.797Z,10.77
2019-01-03T20:47:36.045Z,7.33
2019-01-03T20:50:05.705Z,10.70
2019-01-03T20:52:34.981Z,7.33
2019-01-03T20:55:04.441Z,11.00
2019-01-03T20:57:33.802Z,8.03
2019-01-03T21:00:03.065Z,5.83
2019-01-03T21:02:32.409Z,8.63
2019-01-03T21:05:01.690Z,11.47
2019-01-03T21:07:31.025Z,16.77
2019-01-03T21:10:00.290Z,22.07
2019-01-03T21:12:29.624Z,14.10
2019-01-03T21:14:58.908Z,9.07
2019-01-03T21:17:28.177Z,8.63
2019-01-03T21:19:57.476Z,8.53
2019-01-03T21:22:26.809Z,11.37
2019-01-03T21:24:56.240Z,17.57
2019-01-03T21:27:25.553Z,20.33
2019-01-03T21:29:54.799Z,18.63
2019-01-03T21:32:24.081Z,15.83
2019-01-03T21:34:53.331Z,20.27
2019-01-03T21:37:22.577Z,19.43
2019-01-03T21:39:51.821Z,21.07
2019-01-03T21:42:21.124Z,21.70
2019-01-03T21:44:50.456Z,21.03
2019-01-03T21:47:19.748Z,18.87
2019-01-03T21:49:49.378Z,23.07
2019-01-03T21:52:18.545Z,23.83
2019-01-03T21:54:47.798Z,12.40
2019-01-03T21:57:17.146Z,30.33
2019-01-03T21:59:46.378Z,18.93
2019-01-03T22:02:15.745Z,18.10
2019-01-03T22:04:45.094Z,20.97
2019-01-03T22:07:14.458Z,20.30
2019-01-03T22:09:43.842Z,14.20
2019-01-03T22:12:13.248Z,15.10
2019-01-03T22:14:42.560Z,11.17
2019-01-03T22:17:11.819Z,17.90
2019-01-03T22:19:41.135Z,13.63
2019-01-03T22:22:10.467Z,11.27
2019-01-03T22:24:39.875Z,23.03
2019-01-03T22:27:09.197Z,8.83
2019-01-03T22:29:38.595Z,12.03
2019-01-03T22:32:07.859Z,10.80
2019-01-03T22:34:37.239Z,9.57
2019-01-03T22:37:06.579Z,10.53
2019-01-03T22:39:35.851Z,10.63
2019-01-03T22:42:05.460Z,9.77
2019-01-03T22:44:34.736Z,10.87
2019-01-03T22:47:04.093Z,9.13
2019-01-03T22:49:33.344Z,11.13
2019-01-03T22:52:02.656Z,7.87
2019-01-03T22:54:31.908Z,10.93
2019-01-03T22:57:01.265Z,6.63
2019-01-03T22:59:30.604Z,6.33
2019-01-03T23:02:00.228Z,6.60
2019-01-03T23:04:29.548Z,8.27
2019-01-03T23:06:58.984Z,10.90
2019-01-03T23:09:28.348Z,6.23
2019-01-03T23:11:57.652Z,8.90
2019-01-03T23:14:27.008Z,7.00
2019-01-03T23:16:56.429Z,8.90
2019-01-03T23:19:25.736Z,8.27
2019-01-03T23:21:54.964Z,5.73
2019-01-03T23:24:24.327Z,7.30
2019-01-03T23:26:53.627Z,8.77
2019-01-03T23:29:22.991Z,8.37
2019-01-03T23:31:52.395Z,6.80
2019-01-03T23:34:21.695Z,5.60
2019-01-03T23:36:50.951Z,8.63
2019-01-03T23:39:20.246Z,10.67
2019-01-03T23:41:49.591Z,5.40
2019-01-03T23:44:19.315Z,3.50
2019-01-03T23:46:48.843Z,7.50
2019-01-03T23:49:18.123Z,4.37
2019-01-03T23:51:47.427Z,6.57
2019-01-03T23:54:16.671Z,6.53
2019-01-03T23:56:45.911Z,3.87
2019-01-03T23:59:15.216Z,4.83
